createdAt,value
2022-12-29T00:00:17.650Z,2.78
2022-12-29T00:02:44.310Z,2.45
2022-12-29T00:05:11.076Z,3.10
2022-12-29T00:07:37.790Z,2.40
2022-12-29T00:10:05.181Z,2.03
2022-12-29T00:12:51.718Z,2.13
2022-12-29T00:15:37.006Z,2.28
2022-12-29T00:18:03.878Z,2.60
2022-12-29T00:20:50.729Z,3.47
2022-12-29T00:23:35.779Z,3.00
2022-12-29T00:26:23.632Z,1.88
2022-12-29T00:29:10.417Z,2.10
2022-12-29T00:31:55.339Z,2.10
2022-12-29T00:34:40.317Z,2.20
2022-12-29T00:37:06.947Z,2.30
2022-12-29T00:39:52.547Z,2.10
2022-12-29T00:42:39.349Z,2.45
2022-12-29T00:45:06.429Z,2.72
2022-12-29T00:47:33.818Z,2.10
2022-12-29T00:50:00.859Z,2.33
2022-12-29T00:52:27.422Z,3.13
2022-12-29T00:54:53.985Z,1.73
2022-12-29T00:57:20.578Z,2.10
2022-12-29T00:59:47.156Z,1.67
2022-12-29T01:02:13.857Z,2.05
2022-12-29T01:04:40.573Z,2.13
2022-12-29T01:07:07.249Z,2.70
2022-12-29T01:09:52.737Z,3.40
2022-12-29T01:12:39.531Z,1.38
2022-12-29T01:15:07.234Z,2.15
2022-12-29T01:17:33.842Z,2.90
2022-12-29T01:20:01.826Z,2.60
2022-12-29T01:22:28.854Z,3.25
2022-12-29T01:24:55.431Z,4.00
2022-12-29T01:27:21.997Z,2.90
2022-12-29T01:29:48.577Z,1.42
2022-12-29T01:32:15.329Z,2.80
2022-12-29T01:34:41.909Z,1.73
2022-12-29T01:37:08.499Z,1.30
2022-12-29T01:39:35.118Z,1.50
2022-12-29T01:42:01.758Z,1.15
2022-12-29T01:44:52.852Z,2.10
2022-12-29T01:47:35.586Z,1.33
2022-12-29T01:50:06.083Z,2.10
2022-12-29T01:52:35.242Z,1.52
2022-12-29T01:55:03.709Z,1.25
2022-12-29T01:57:33.907Z,1.13
2022-12-29T02:00:09.005Z,1.95
2022-12-29T02:02:36.224Z,1.83
2022-12-29T02:05:10.565Z,2.28
2022-12-29T02:07:38.220Z,2.85
2022-12-29T02:10:05.153Z,1.73
2022-12-29T02:12:31.726Z,2.13
2022-12-29T02:15:00.969Z,1.75
2022-12-29T02:17:35.407Z,2.47
2022-12-29T02:20:39.393Z,1.63
2022-12-29T02:23:34.085Z,1.27
2022-12-29T02:26:17.559Z,1.17
2022-12-29T02:29:13.623Z,1.17
2022-12-29T02:31:40.903Z,2.00
2022-12-29T02:34:16.559Z,1.33
2022-12-29T02:36:54.667Z,1.13
2022-12-29T02:39:51.187Z,1.92
2022-12-29T02:42:27.826Z,1.85
2022-12-29T02:45:03.399Z,2.97
2022-12-29T02:47:38.808Z,2.15
2022-12-29T02:50:12.793Z,1.02
2022-12-29T02:52:44.956Z,1.02
2022-12-29T02:55:12.774Z,1.05
2022-12-29T02:57:39.336Z,6.00
2022-12-29T03:00:09.043Z,0.95
2022-12-29T03:03:06.413Z,1.63
2022-12-29T03:05:41.915Z,2.73
2022-12-29T03:08:14.382Z,0.55
2022-12-29T03:11:02.273Z,1.08
2022-12-29T03:13:59.153Z,0.65
2022-12-29T03:16:55.149Z,0.73
2022-12-29T03:19:29.618Z,0.40
2022-12-29T03:22:21.327Z,0.50
2022-12-29T03:24:51.171Z,1.48
2022-12-29T03:27:34.604Z,0.40
2022-12-29T03:30:06.317Z,0.80
2022-12-29T03:32:36.283Z,0.80
2022-12-29T03:35:04.398Z,7.38
2022-12-29T03:37:37.071Z,0.43
2022-12-29T03:40:05.149Z,1.17
2022-12-29T03:42:33.691Z,1.27
2022-12-29T03:45:01.478Z,1.38
2022-12-29T03:47:28.102Z,0.85
2022-12-29T03:49:54.651Z,0.50
2022-12-29T03:52:21.257Z,0.82
2022-12-29T03:54:48.234Z,0.75
2022-12-29T03:57:14.865Z,2.05
2022-12-29T03:59:41.444Z,0.60
2022-12-29T04:02:08.288Z,1.73
2022-12-29T04:04:34.984Z,0.80
2022-12-29T04:07:01.548Z,0.80
2022-12-29T04:09:28.167Z,0.40
2022-12-29T04:11:54.724Z,0.57
2022-12-29T04:14:21.262Z,1.95
2022-12-29T04:16:47.841Z,0.52
2022-12-29T04:19:14.472Z,1.05
2022-12-29T04:21:41.109Z,1.08
2022-12-29T04:24:07.946Z,1.58
2022-12-29T04:26:34.813Z,1.38
2022-12-29T04:29:01.458Z,0.95
2022-12-29T04:31:28.044Z,0.77
2022-12-29T04:33:54.641Z,1.05
2022-12-29T04:36:25.321Z,0.75
2022-12-29T04:38:56.229Z,0.50
2022-12-29T04:41:22.852Z,1.42
2022-12-29T04:43:49.416Z,2.25
2022-12-29T04:46:16.024Z,0.60
2022-12-29T04:48:42.591Z,1.42
2022-12-29T04:51:09.217Z,1.13
2022-12-29T04:53:35.769Z,0.98
2022-12-29T04:56:02.387Z,3.22
2022-12-29T04:58:28.988Z,1.25
2022-12-29T05:00:55.628Z,1.95
2022-12-29T05:03:22.275Z,1.48
2022-12-29T05:05:48.910Z,1.58
2022-12-29T05:08:15.566Z,3.22
2022-12-29T05:10:45.789Z,1.70
2022-12-29T05:13:12.431Z,2.20
2022-12-29T05:15:39.056Z,2.15
2022-12-29T05:18:05.679Z,1.50
2022-12-29T05:20:32.256Z,1.23
2022-12-29T05:22:58.880Z,0.80
2022-12-29T05:25:25.423Z,2.78
2022-12-29T05:27:51.991Z,1.75
2022-12-29T05:30:18.532Z,3.55
2022-12-29T05:32:45.088Z,1.73
2022-12-29T05:35:11.707Z,2.70
2022-12-29T05:37:38.285Z,2.50
2022-12-29T05:40:05.432Z,3.75
2022-12-29T05:42:32.011Z,2.85
2022-12-29T05:44:58.716Z,3.17
2022-12-29T05:47:25.322Z,2.13
2022-12-29T05:49:52.642Z,2.40
2022-12-29T05:52:19.229Z,1.85
2022-12-29T05:54:45.859Z,1.98
2022-12-29T05:57:12.462Z,1.73
2022-12-29T05:59:38.993Z,4.53
2022-12-29T06:02:05.688Z,5.80
2022-12-29T06:04:32.456Z,1.25
2022-12-29T06:06:59.658Z,1.88
2022-12-29T06:09:26.231Z,0.50
2022-12-29T06:11:52.837Z,1.85
2022-12-29T06:14:19.422Z,4.22
2022-12-29T06:16:46.004Z,0.47
2022-12-29T06:19:12.581Z,0.50
2022-12-29T06:21:39.281Z,0.85
2022-12-29T06:24:06.567Z,4.05
2022-12-29T06:26:33.182Z,0.82
2022-12-29T06:28:59.758Z,4.32
2022-12-29T06:31:26.366Z,3.47
2022-12-29T06:33:52.952Z,1.52
2022-12-29T06:36:19.574Z,2.45
2022-12-29T06:38:46.365Z,1.52
2022-12-29T06:41:12.944Z,6.05
2022-12-29T06:43:39.664Z,2.60
2022-12-29T06:46:06.576Z,2.42
2022-12-29T06:48:33.312Z,3.60
2022-12-29T06:50:59.858Z,0.65
2022-12-29T06:53:26.479Z,3.10
2022-12-29T06:55:53.199Z,2.30
2022-12-29T06:58:19.792Z,1.92
2022-12-29T07:00:46.460Z,2.83
2022-12-29T07:03:13.088Z,2.25
2022-12-29T07:05:39.699Z,4.05
2022-12-29T07:08:06.780Z,2.88
2022-12-29T07:10:33.804Z,9.90
2022-12-29T07:13:00.454Z,1.92
2022-12-29T07:15:27.101Z,2.97
2022-12-29T07:17:53.697Z,5.18
2022-12-29T07:20:26.236Z,2.42
2022-12-29T07:22:53.283Z,4.07
2022-12-29T07:25:19.833Z,4.93
2022-12-29T07:27:46.422Z,4.35
2022-12-29T07:30:13.441Z,3.92
2022-12-29T07:32:40.010Z,3.30
2022-12-29T07:35:06.829Z,5.20
2022-12-29T07:37:33.393Z,4.57
2022-12-29T07:39:59.969Z,2.92
2022-12-29T07:42:26.623Z,6.00
2022-12-29T07:44:53.468Z,3.92
2022-12-29T07:47:21.326Z,4.13
2022-12-29T07:49:48.349Z,1.15
2022-12-29T07:52:14.936Z,5.50
2022-12-29T07:54:41.535Z,3.67
2022-12-29T07:57:08.106Z,3.05
2022-12-29T07:59:34.776Z,3.22
2022-12-29T08:02:01.660Z,6.20
2022-12-29T08:04:28.341Z,4.82
2022-12-29T08:06:55.064Z,8.82
2022-12-29T08:09:24.151Z,7.50
2022-12-29T08:11:51.195Z,4.30
2022-12-29T08:14:17.785Z,4.65
2022-12-29T08:16:44.393Z,6.38
2022-12-29T08:19:12.607Z,5.75
2022-12-29T08:21:39.618Z,5.22
2022-12-29T08:24:07.203Z,5.22
2022-12-29T08:26:34.018Z,3.13
2022-12-29T08:29:00.624Z,3.97
2022-12-29T08:31:27.299Z,8.30
2022-12-29T08:33:53.898Z,4.38
2022-12-29T08:36:20.787Z,2.67
2022-12-29T08:38:47.369Z,5.90
2022-12-29T08:41:13.915Z,4.53
2022-12-29T08:43:40.593Z,3.20
2022-12-29T08:46:07.182Z,3.00
2022-12-29T08:48:33.775Z,7.38
2022-12-29T08:51:00.335Z,5.68
2022-12-29T08:53:26.958Z,6.47
2022-12-29T08:56:04.787Z,3.70
2022-12-29T08:58:32.533Z,7.20
2022-12-29T09:01:00.147Z,3.17
2022-12-29T09:03:54.984Z,5.30
2022-12-29T09:06:15.043Z,6.05
2022-12-29T09:08:41.638Z,4.33
2022-12-29T09:11:15.430Z,4.57
2022-12-29T09:13:42.035Z,6.15
2022-12-29T09:16:08.904Z,7.80
2022-12-29T09:18:35.570Z,4.45
2022-12-29T09:21:04.376Z,6.20
2022-12-29T09:23:31.584Z,12.10
2022-12-29T09:25:58.221Z,3.20
2022-12-29T09:28:26.300Z,5.60
2022-12-29T09:30:53.372Z,2.38
2022-12-29T09:33:19.967Z,3.58
2022-12-29T09:35:52.159Z,6.65
2022-12-29T09:38:18.769Z,4.65
2022-12-29T09:40:47.379Z,4.85
2022-12-29T09:45:47.023Z,7.28
2022-12-29T09:48:25.784Z,2.70
2022-12-29T09:50:57.500Z,5.80
2022-12-29T09:53:29.223Z,3.65
2022-12-29T09:55:58.431Z,7.32
2022-12-29T09:58:48.856Z,5.88
2022-12-29T10:01:27.537Z,4.47
2022-12-29T10:03:57.446Z,6.18
2022-12-29T10:06:36.151Z,4.30
2022-12-29T10:09:15.237Z,5.28
2022-12-29T10:12:00.370Z,7.57
2022-12-29T10:14:54.725Z,6.95
2022-12-29T10:17:48.544Z,4.20
2022-12-29T10:20:27.814Z,2.92
2022-12-29T10:23:23.128Z,4.03
2022-12-29T10:25:50.115Z,4.90
2022-12-29T10:28:35.417Z,6.22
2022-12-29T10:31:08.917Z,5.55
2022-12-29T10:33:39.074Z,8.77
2022-12-29T10:36:37.810Z,7.07
2022-12-29T10:39:27.708Z,6.05
2022-12-29T10:41:55.861Z,6.25
2022-12-29T10:44:22.768Z,8.85
2022-12-29T10:46:56.905Z,5.53
2022-12-29T10:49:26.277Z,7.07
2022-12-29T10:51:56.341Z,5.75
2022-12-29T10:54:28.922Z,7.90
2022-12-29T10:57:04.869Z,6.72
2022-12-29T10:59:33.953Z,6.65
2022-12-29T11:02:12.887Z,4.85
2022-12-29T11:04:50.715Z,6.18
2022-12-29T11:07:22.177Z,7.03
2022-12-29T11:09:51.830Z,5.68
2022-12-29T11:12:24.563Z,6.93
2022-12-29T11:15:20.530Z,3.42
2022-12-29T11:17:55.326Z,4.78
2022-12-29T11:20:39.488Z,2.13
2022-12-29T11:23:23.668Z,2.72
2022-12-29T11:26:12.144Z,5.60
2022-12-29T11:28:39.652Z,5.60
2022-12-29T11:31:07.626Z,5.28
2022-12-29T11:33:36.058Z,6.10
2022-12-29T11:36:16.448Z,3.78
2022-12-29T11:38:54.017Z,7.65
2022-12-29T11:41:25.935Z,5.77
2022-12-29T11:43:54.437Z,6.60
2022-12-29T11:46:27.679Z,9.27
2022-12-29T11:48:54.516Z,4.53
2022-12-29T11:51:56.237Z,6.47
2022-12-29T11:54:26.450Z,6.28
2022-12-29T11:56:54.039Z,11.40
2022-12-29T11:59:34.276Z,7.88
2022-12-29T12:02:10.975Z,7.00
2022-12-29T12:04:38.296Z,7.10
2022-12-29T12:07:18.026Z,7.88
2022-12-29T12:09:54.857Z,6.65
2022-12-29T12:12:29.354Z,10.23
2022-12-29T12:15:00.983Z,4.60
2022-12-29T12:17:46.433Z,6.75
2022-12-29T12:20:34.687Z,10.52
2022-12-29T12:23:38.941Z,8.20
2022-12-29T12:26:11.612Z,4.70
2022-12-29T12:28:55.055Z,6.47
2022-12-29T12:31:42.659Z,7.97
2022-12-29T12:34:17.601Z,2.60
2022-12-29T12:36:54.123Z,6.38
2022-12-29T12:39:28.521Z,4.93
2022-12-29T12:42:12.518Z,4.55
2022-12-29T12:44:58.318Z,6.35
2022-12-29T12:47:50.320Z,5.97
2022-12-29T12:50:36.590Z,5.68
2022-12-29T12:53:06.034Z,6.22
2022-12-29T12:55:54.004Z,5.60
2022-12-29T12:58:44.732Z,6.88
2022-12-29T13:01:20.109Z,3.88
2022-12-29T13:04:00.523Z,7.68
2022-12-29T13:07:08.880Z,5.82
2022-12-29T13:09:53.673Z,5.50
2022-12-29T13:12:22.854Z,7.93
2022-12-29T13:14:58.377Z,5.70
2022-12-29T13:17:47.810Z,3.58
2022-12-29T13:20:29.537Z,4.88
2022-12-29T13:23:43.443Z,4.72
2022-12-29T13:26:21.120Z,4.47
2022-12-29T13:29:21.320Z,6.28
2022-12-29T13:32:09.457Z,6.43
2022-12-29T13:34:48.951Z,5.28
2022-12-29T13:37:18.501Z,6.90
2022-12-29T13:39:51.151Z,5.53
2022-12-29T13:42:19.528Z,8.98
2022-12-29T13:45:03.881Z,5.95
2022-12-29T13:47:36.569Z,7.85
2022-12-29T13:50:06.555Z,6.80
2022-12-29T13:52:37.532Z,8.98
2022-12-29T13:55:33.090Z,4.72
2022-12-29T13:58:17.117Z,7.65
2022-12-29T14:01:05.304Z,8.77
2022-12-29T14:03:50.705Z,4.20
2022-12-29T14:06:17.512Z,3.63
2022-12-29T14:08:44.920Z,8.68
2022-12-29T14:11:12.977Z,9.15
2022-12-29T14:13:41.414Z,5.38
2022-12-29T14:16:11.849Z,7.15
2022-12-29T14:18:47.456Z,4.75
2022-12-29T14:21:17.056Z,4.38
2022-12-29T14:23:46.151Z,4.13
2022-12-29T14:26:13.901Z,7.40
2022-12-29T14:28:43.158Z,7.67
2022-12-29T14:31:15.802Z,5.35
2022-12-29T14:34:03.055Z,8.93
2022-12-29T14:36:37.282Z,4.72
2022-12-29T14:39:05.057Z,3.90
2022-12-29T14:41:36.726Z,7.65
2022-12-29T14:44:09.196Z,5.13
2022-12-29T14:46:47.958Z,4.32
2022-12-29T14:49:30.073Z,4.07
2022-12-29T14:52:17.281Z,6.55
2022-12-29T14:54:49.488Z,7.47
2022-12-29T14:57:38.245Z,8.23
2022-12-29T15:00:16.895Z,7.45
2022-12-29T15:02:48.621Z,5.60
2022-12-29T15:05:29.613Z,5.47
2022-12-29T15:07:58.306Z,5.78
2022-12-29T15:10:26.638Z,6.93
2022-12-29T15:12:55.340Z,4.22
2022-12-29T15:15:27.701Z,5.70
2022-12-29T15:17:57.114Z,6.65
2022-12-29T15:20:30.727Z,6.63
2022-12-29T15:22:59.662Z,6.10
2022-12-29T15:25:27.477Z,5.50
2022-12-29T15:28:06.001Z,5.22
2022-12-29T15:32:59.449Z,7.80
2022-12-29T15:35:35.606Z,7.00
2022-12-29T15:38:14.873Z,7.10
2022-12-29T15:40:44.924Z,9.57
2022-12-29T15:43:20.573Z,8.40
2022-12-29T15:45:47.993Z,6.57
2022-12-29T15:48:22.375Z,4.40
2022-12-29T15:50:49.466Z,8.15
2022-12-29T15:53:31.348Z,10.48
2022-12-29T15:56:09.145Z,5.45
2022-12-29T15:58:45.867Z,4.85
2022-12-29T16:01:20.096Z,10.02
2022-12-29T16:03:47.478Z,9.93
2022-12-29T16:06:23.182Z,5.47
2022-12-29T16:08:57.709Z,7.45
2022-12-29T16:11:40.005Z,7.78
2022-12-29T16:14:38.994Z,6.57
2022-12-29T16:17:05.794Z,9.30
2022-12-29T16:19:40.421Z,8.75
2022-12-29T16:22:21.466Z,9.40
2022-12-29T16:24:48.065Z,4.28
2022-12-29T16:27:43.966Z,6.40
2022-12-29T16:30:36.847Z,8.75
2022-12-29T16:33:06.360Z,10.15
2022-12-29T16:35:47.112Z,5.25
2022-12-29T16:38:14.496Z,13.02
2022-12-29T16:40:54.968Z,7.32
2022-12-29T16:43:32.688Z,8.23
2022-12-29T16:45:59.231Z,11.23
2022-12-29T16:48:28.314Z,10.30
2022-12-29T16:51:05.245Z,9.55
2022-12-29T16:53:42.287Z,4.82
2022-12-29T16:56:17.817Z,8.27
2022-12-29T16:58:49.192Z,5.53
2022-12-29T17:01:20.173Z,8.15
2022-12-29T17:03:56.018Z,7.65
2022-12-29T17:06:24.057Z,8.55
2022-12-29T17:08:52.619Z,8.07
2022-12-29T17:14:04.277Z,5.80
2022-12-29T17:16:30.873Z,5.80
2022-12-29T17:18:57.414Z,8.68
2022-12-29T17:21:23.954Z,7.15
2022-12-29T17:23:50.545Z,6.45
2022-12-29T17:26:17.086Z,5.95
2022-12-29T17:28:45.354Z,8.13
2022-12-29T17:31:13.036Z,9.00
2022-12-29T17:33:40.569Z,9.30
2022-12-29T17:36:07.449Z,3.58
2022-12-29T17:38:37.646Z,9.57
2022-12-29T17:41:04.290Z,7.03
2022-12-29T17:43:36.830Z,4.80
2022-12-29T17:46:06.372Z,6.72
2022-12-29T17:48:33.031Z,7.28
2022-12-29T17:50:59.701Z,5.05
2022-12-29T17:53:28.583Z,8.02
2022-12-29T17:55:55.214Z,7.32
2022-12-29T17:58:23.808Z,10.43
2022-12-29T18:03:20.022Z,10.27
2022-12-29T18:05:46.831Z,8.65
2022-12-29T18:08:13.438Z,8.68
2022-12-29T18:10:40.155Z,8.82
2022-12-29T18:13:06.869Z,7.82
2022-12-29T18:15:36.552Z,9.30
2022-12-29T18:18:21.281Z,12.60
2022-12-29T18:20:48.738Z,9.55
2022-12-29T18:23:19.969Z,9.23
2022-12-29T18:25:51.469Z,8.73
2022-12-29T18:28:18.079Z,10.40
2022-12-29T18:30:44.703Z,7.72
2022-12-29T18:33:21.336Z,12.23
2022-12-29T18:36:00.490Z,9.02
2022-12-29T18:40:54.119Z,7.45
2022-12-29T18:43:21.149Z,10.07
2022-12-29T18:45:48.123Z,7.95
2022-12-29T18:48:15.835Z,5.93
2022-12-29T18:50:42.630Z,9.43
2022-12-29T18:53:23.292Z,6.65
2022-12-29T18:55:50.859Z,8.10
2022-12-29T18:58:17.521Z,8.98
2022-12-29T19:00:44.801Z,9.52
2022-12-29T19:03:13.591Z,7.32
2022-12-29T19:05:42.585Z,5.43
2022-12-29T19:08:10.389Z,6.95
2022-12-29T19:10:37.620Z,7.35
2022-12-29T19:13:04.360Z,6.88
2022-12-29T19:15:33.218Z,7.38
2022-12-29T19:18:41.919Z,6.15
2022-12-29T19:20:49.461Z,5.60
2022-12-29T19:23:18.362Z,9.63
2022-12-29T19:25:45.932Z,9.63
2022-12-29T19:28:21.343Z,7.72
2022-12-29T19:30:52.292Z,5.35
2022-12-29T19:33:21.261Z,5.82
2022-12-29T19:35:48.518Z,4.90
2022-12-29T19:38:15.142Z,6.97
2022-12-29T19:40:44.107Z,8.32
2022-12-29T19:43:12.151Z,6.38
2022-12-29T19:45:43.540Z,7.90
2022-12-29T19:48:20.491Z,6.60
2022-12-29T19:50:47.572Z,5.38
2022-12-29T19:53:14.913Z,5.63
2022-12-29T19:55:45.726Z,4.63
2022-12-29T19:58:12.687Z,2.47
2022-12-29T20:00:43.643Z,3.20
2022-12-29T20:03:10.976Z,8.60
2022-12-29T20:05:38.917Z,3.60
2022-12-29T20:08:05.773Z,7.85
2022-12-29T20:10:32.413Z,6.00
2022-12-29T20:12:58.961Z,6.25
2022-12-29T20:15:25.588Z,5.97
2022-12-29T20:20:38.955Z,4.65
2022-12-29T20:23:05.513Z,5.20
2022-12-29T20:25:44.672Z,5.70
2022-12-29T20:28:18.698Z,5.93
2022-12-29T20:30:45.365Z,8.18
2022-12-29T20:33:11.976Z,8.40
2022-12-29T20:35:38.715Z,6.75
2022-12-29T20:38:06.767Z,7.82
2022-12-29T20:40:33.394Z,8.73
2022-12-29T20:42:59.944Z,5.93
2022-12-29T20:45:26.640Z,10.77
2022-12-29T20:47:53.357Z,7.63
2022-12-29T20:50:20.058Z,11.32
2022-12-29T20:52:47.073Z,10.13
2022-12-29T20:55:14.342Z,6.15
2022-12-29T20:58:14.221Z,7.20
2022-12-29T21:00:30.412Z,14.85
2022-12-29T21:02:58.597Z,6.50
2022-12-29T21:05:26.121Z,7.10
2022-12-29T21:07:53.921Z,6.80
2022-12-29T21:10:21.133Z,12.73
2022-12-29T21:12:48.576Z,10.57
2022-12-29T21:15:16.789Z,10.75
2022-12-29T21:17:46.848Z,10.43
2022-12-29T21:20:20.030Z,12.93
2022-12-29T21:22:50.070Z,15.93
2022-12-29T21:25:16.735Z,12.38
2022-12-29T21:27:44.231Z,10.40
2022-12-29T21:30:11.770Z,7.80
2022-12-29T21:32:38.601Z,11.68
2022-12-29T21:35:05.670Z,11.20
2022-12-29T21:37:32.485Z,14.70
2022-12-29T21:39:59.418Z,14.80
2022-12-29T21:42:27.684Z,14.93
2022-12-29T21:45:18.347Z,12.27
2022-12-29T21:48:05.456Z,12.32
2022-12-29T21:50:32.034Z,16.05
2022-12-29T21:52:58.594Z,9.63
2022-12-29T21:55:25.157Z,12.65
2022-12-29T21:58:10.094Z,17.33
2022-12-29T22:00:55.204Z,11.55
2022-12-29T22:03:40.452Z,18.15
2022-12-29T22:06:29.741Z,11.20
2022-12-29T22:09:14.910Z,14.18
2022-12-29T22:12:00.448Z,8.60
2022-12-29T22:14:27.055Z,13.82
2022-12-29T22:16:53.657Z,11.38
2022-12-29T22:19:20.267Z,16.52
2022-12-29T22:21:46.904Z,11.55
2022-12-29T22:24:13.480Z,13.40
2022-12-29T22:26:40.256Z,11.38
2022-12-29T22:29:09.049Z,10.00
2022-12-29T22:31:35.781Z,9.50
2022-12-29T22:34:04.103Z,17.17
2022-12-29T22:36:31.364Z,15.90
2022-12-29T22:38:58.129Z,21.38
2022-12-29T22:41:24.871Z,23.02
2022-12-29T22:43:52.091Z,15.02
2022-12-29T22:46:19.290Z,13.27
2022-12-29T22:48:46.342Z,11.07
2022-12-29T22:51:13.015Z,13.40
2022-12-29T22:53:41.225Z,17.88
2022-12-29T22:56:13.821Z,14.40
2022-12-29T22:58:41.941Z,14.45
2022-12-29T23:01:09.573Z,14.38
2022-12-29T23:03:36.529Z,14.07
2022-12-29T23:06:05.328Z,14.98
2022-12-29T23:08:38.615Z,10.68
2022-12-29T23:11:08.053Z,14.30
2022-12-29T23:13:35.056Z,8.98
2022-12-29T23:16:01.890Z,16.55
2022-12-29T23:18:28.674Z,10.63
2022-12-29T23:20:55.371Z,12.23
2022-12-29T23:23:48.535Z,11.52
2022-12-29T23:26:19.832Z,24.25
2022-12-29T23:28:46.881Z,19.08
2022-12-29T23:31:14.258Z,17.88
2022-12-29T23:33:40.927Z,13.20
2022-12-29T23:36:07.780Z,18.27
2022-12-29T23:38:34.822Z,18.75
2022-12-29T23:41:01.590Z,7.50
2022-12-29T23:43:28.197Z,12.18
2022-12-29T23:45:54.774Z,19.05
2022-12-29T23:48:21.385Z,15.25
2022-12-29T23:50:47.985Z,12.82
2022-12-29T23:53:14.603Z,18.10
2022-12-29T23:55:43.519Z,8.52
2022-12-29T23:58:11.669Z,9.55
